Time;durP1;ratioP1;P1;durP2;ratioP2;P2;SDS_P1;SDS_P2;PMS_P1;PMS_P2;Temp;Humidity;BMP_temperature;BMP_pressure;BME280_temperature;BME280_humidity;BME280_pressure;Samples;Min_cycle;Max_cycle;Signal;HPM_P1;HPM_P2
2023/10/31 00:01:41;;;;;;;0.68;0.68;;;;;;;9.56;95.90;94826.50;5032185;28;20679;-75
2023/10/31 00:04:08;;;;;;;0.35;0.35;;;;;;;9.50;96.21;94824.25;5032397;28;20200;-75
2023/10/31 00:06:36;;;;;;;0.20;0.20;;;;;;;9.55;96.15;94824.09;5032192;28;20236;-75
2023/10/31 00:09:03;;;;;;;0.20;0.20;;;;;;;9.47;95.81;94824.84;5032422;28;20686;-75
2023/10/31 00:11:29;;;;;;;0.20;0.20;;;;;;;9.38;96.41;94819.44;5020233;28;20204;-75
2023/10/31 00:13:56;;;;;;;1.83;1.20;;;;;;;9.51;96.87;94812.31;5032570;28;20663;-75
2023/10/31 00:16:24;;;;;;;0.20;0.20;;;;;;;9.42;96.53;94820.41;5032231;28;20216;-76
2023/10/31 00:18:51;;;;;;;0.63;0.63;;;;;;;9.38;96.18;94813.25;5032131;28;20208;-76
2023/10/31 00:21:18;;;;;;;0.20;0.20;;;;;;;9.35;96.34;94811.16;5032761;28;20242;-76
2023/10/31 00:23:48;;;;;;;0.22;0.22;;;;;;;9.51;96.52;94812.31;5030066;28;20208;-76
2023/10/31 00:26:15;;;;;;;1.45;1.10;;;;;;;9.40;96.74;94811.81;5019183;28;20216;-76
2023/10/31 00:28:43;;;;;;;1.00;0.93;;;;;;;9.35;97.47;94811.16;5032313;28;20577;-76
2023/10/31 00:31:11;;;;;;;2.65;1.25;;;;;;;9.29;98.32;94809.72;5031980;28;20598;-77
2023/10/31 00:33:38;;;;;;;2.40;1.77;;;;;;;9.23;98.94;94807.16;5031659;28;20239;-76
2023/10/31 00:36:05;;;;;;;1.15;0.90;;;;;;;9.26;98.57;94817.34;5032396;28;20196;-76
2023/10/31 00:38:32;;;;;;;4.90;1.50;;;;;;;9.19;98.46;94806.19;5031788;28;20200;-78
2023/10/31 00:41:01;;;;;;;2.47;1.52;;;;;;;9.18;99.12;94803.81;5032495;28;20645;-76
2023/10/31 00:43:27;;;;;;;0.20;0.20;;;;;;;9.12;99.55;94805.06;5032087;28;20208;-76
2023/10/31 00:45:54;;;;;;;2.38;1.20;;;;;;;9.04;99.77;94793.09;5021068;28;20223;-77
2023/10/31 00:48:21;;;;;;;2.08;1.70;;;;;;;9.02;99.73;94795.31;5031966;28;20200;-73
2023/10/31 00:50:48;;;;;;;3.17;1.85;;;;;;;9.08;100.00;94799.50;5032112;28;20197;-73
2023/10/31 00:53:16;;;;;;;1.70;1.38;;;;;;;9.04;100.00;94806.63;5032109;28;20227;-73
2023/10/31 00:55:44;;;;;;;2.00;1.10;;;;;;;9.03;100.00;94799.63;5031944;28;20212;-73
2023/10/31 00:58:12;;;;;;;1.70;0.98;;;;;;;9.05;100.00;94789.31;5029267;28;20328;-73
2023/10/31 01:00:39;;;;;;;0.20;0.20;;;;;;;8.99;100.00;94795.19;5021452;28;20209;-72
2023/10/31 01:03:06;;;;;;;0.20;0.20;;;;;;;8.97;100.00;94792.00;5028733;28;20302;-73
2023/10/31 01:05:33;;;;;;;0.47;0.30;;;;;;;8.91;100.00;94784.00;5031591;28;20211;-78
2023/10/31 01:07:59;;;;;;;1.10;0.82;;;;;;;8.95;100.00;94780.69;5031550;28;20818;-73
2023/10/31 01:10:26;;;;;;;0.20;0.20;;;;;;;8.98;100.00;94771.97;5031102;28;20308;-74
2023/10/31 01:12:53;;;;;;;1.52;1.17;;;;;;;8.98;100.00;94778.16;5031625;28;20225;-73
2023/10/31 01:15:21;;;;;;;2.28;1.38;;;;;;;9.00;100.00;94775.97;5031958;28;20201;-74
2023/10/31 01:17:48;;;;;;;1.88;1.15;;;;;;;8.99;100.00;94773.56;5028076;28;20235;-73
2023/10/31 01:20:15;;;;;;;2.35;1.30;;;;;;;8.97;100.00;94776.56;5021836;28;20209;-73
2023/10/31 01:22:42;;;;;;;1.75;1.30;;;;;;;9.05;100.00;94773.09;5031010;28;20208;-73
2023/10/31 01:25:09;;;;;;;1.30;1.20;;;;;;;9.06;100.00;94769.28;5031752;28;20215;-79
2023/10/31 01:27:37;;;;;;;4.45;1.58;;;;;;;9.06;100.00;94768.47;5030956;28;20223;-77
2023/10/31 01:30:05;;;;;;;2.03;1.52;;;;;;;9.02;100.00;94765.59;5030519;28;20331;-78
2023/10/31 01:32:33;;;;;;;2.92;1.35;;;;;;;8.95;100.00;94762.59;5030664;28;20223;-77
2023/10/31 01:35:00;;;;;;;2.65;1.38;;;;;;;8.83;100.00;94768.59;5030681;28;20207;-77
2023/10/31 01:37:26;;;;;;;3.38;1.40;;;;;;;8.78;100.00;94767.91;5030688;28;20208;-75
2023/10/31 01:39:53;;;;;;;1.25;1.15;;;;;;;8.78;100.00;94762.53;5030520;28;20239;-76
2023/10/31 01:42:20;;;;;;;0.28;0.28;;;;;;;8.83;100.00;94765.09;5030617;28;20196;-75
2023/10/31 01:44:47;;;;;;;0.57;0.30;;;;;;;8.81;100.00;94762.69;5030937;28;20673;-76
2023/10/31 01:47:14;;;;;;;0.57;0.57;;;;;;;9.04;100.00;94765.28;5022303;28;20246;-76
2023/10/31 01:49:43;;;;;;;0.20;0.20;;;;;;;8.98;100.00;94772.75;5029857;28;20212;-75
2023/10/31 01:52:10;;;;;;;0.50;0.50;;;;;;;8.89;100.00;94763.81;5029875;28;20196;-75
2023/10/31 01:54:37;;;;;;;0.10;0.10;;;;;;;8.93;100.00;94764.00;5030356;28;20204;-76
2023/10/31 01:57:05;;;;;;;0.20;0.20;;;;;;;9.14;100.00;94765.81;5030463;28;20634;-75
2023/10/31 01:59:32;;;;;;;0.20;0.20;;;;;;;9.08;100.00;94767.06;5030522;28;20547;-75
2023/10/31 02:02:02;;;;;;;0.20;0.20;;;;;;;9.01;100.00;94766.75;5030710;28;20583;-76
2023/10/31 02:04:28;;;;;;;0.45;0.45;;;;;;;9.09;100.00;94755.16;5034039;28;20572;-76
2023/10/31 02:06:57;;;;;;;0.30;0.30;;;;;;;9.31;100.00;94754.22;5029905;28;20282;-76
2023/10/31 02:09:26;;;;;;;0.32;0.32;;;;;;;9.15;100.00;94750.41;5029885;28;20208;-76
2023/10/31 02:11:53;;;;;;;2.40;1.50;;;;;;;9.02;100.00;94741.28;5018769;28;20282;-78
2023/10/31 02:14:20;;;;;;;3.35;2.42;;;;;;;9.00;100.00;94743.53;5030840;28;20207;-77
2023/10/31 02:16:47;;;;;;;0.32;0.32;;;;;;;9.11;100.00;94744.81;5029949;28;20258;-76
2023/10/31 02:19:19;;;;;;;0.30;0.30;;;;;;;9.11;100.00;94738.63;5029712;28;20216;-77
2023/10/31 02:21:48;;;;;;;3.80;2.15;;;;;;;9.20;100.00;94737.53;5029396;28;20205;-77
2023/10/31 02:24:14;;;;;;;2.40;1.30;;;;;;;9.07;100.00;94737.66;5030077;28;20200;-77
2023/10/31 02:26:41;;;;;;;7.53;0.75;;;;;;;9.00;100.00;94731.94;5029225;28;20226;-76
2023/10/31 02:29:08;;;;;;;0.20;0.20;;;;;;;9.04;100.00;94739.06;5029854;28;20709;-76
2023/10/31 02:31:36;;;;;;;0.55;0.55;;;;;;;8.94;100.00;94733.97;5029485;28;20310;-76
2023/10/31 02:34:03;;;;;;;0.52;0.52;;;;;;;9.40;100.00;94727.22;5030147;28;20569;-76
2023/10/31 02:36:30;;;;;;;0.47;0.47;;;;;;;9.30;100.00;94727.50;5029751;28;20315;-76
2023/10/31 02:38:58;;;;;;;0.20;0.20;;;;;;;9.11;100.00;94734.00;5029667;28;20618;-76
2023/10/31 02:41:25;;;;;;;0.10;0.10;;;;;;;8.97;100.00;94733.34;5030313;28;20208;-73
2023/10/31 02:43:54;;;;;;;0.43;0.43;;;;;;;8.89;100.00;94732.19;5029421;28;20211;-75
2023/10/31 02:46:21;;;;;;;0.10;0.10;;;;;;;8.76;100.00;94730.41;5030092;28;20236;-76
2023/10/31 02:48:48;;;;;;;0.10;0.10;;;;;;;8.68;100.00;94731.19;5029572;28;20208;-76
2023/10/31 02:51:15;;;;;;;0.20;0.20;;;;;;;8.66;100.00;94727.22;5029906;28;20619;-76
2023/10/31 02:53:42;;;;;;;0.30;0.30;;;;;;;8.63;100.00;94730.53;5029659;28;20639;-76
2023/10/31 02:56:10;;;;;;;0.20;0.20;;;;;;;8.54;100.00;94731.31;5029644;28;20207;-76
2023/10/31 02:58:37;;;;;;;0.20;0.20;;;;;;;8.38;100.00;94727.41;5029567;28;20206;-77
2023/10/31 03:01:04;;;;;;;0.30;0.30;;;;;;;8.36;100.00;94742.34;5029885;28;20208;-76
2023/10/31 03:03:31;;;;;;;2.88;2.20;;;;;;;8.46;100.00;94747.47;5019431;28;20223;-76
2023/10/31 03:05:57;;;;;;;2.75;1.38;;;;;;;8.54;100.00;94744.00;5029452;28;20572;-76
2023/10/31 03:08:24;;;;;;;2.15;1.83;;;;;;;8.42;100.00;94728.41;5017739;28;20299;-76
2023/10/31 03:10:52;;;;;;;2.95;1.52;;;;;;;8.46;100.00;94734.78;5017947;28;20209;-76
2023/10/31 03:13:20;;;;;;;1.48;1.38;;;;;;;8.50;100.00;94733.03;5025211;28;20235;-76
2023/10/31 03:15:47;;;;;;;2.28;1.80;;;;;;;8.53;100.00;94745.13;5030478;28;20223;-76
2023/10/31 03:18:15;;;;;;;1.88;1.55;;;;;;;8.24;100.00;94739.38;5029770;28;20246;-74
2023/10/31 03:20:45;;;;;;;2.17;1.50;;;;;;;8.17;100.00;94737.16;5029689;28;20239;-75
2023/10/31 03:23:12;;;;;;;1.35;1.20;;;;;;;8.14;100.00;94735.06;5029875;28;20232;-75
2023/10/31 03:25:39;;;;;;;3.10;1.90;;;;;;;8.12;100.00;94729.16;5029456;28;20223;-75
2023/10/31 03:28:18;;;;;;;1.67;1.48;;;;;;;8.13;100.00;94736.16;5029709;28;20585;-75
2023/10/31 03:30:47;;;;;;;0.20;0.20;;;;;;;8.12;100.00;94721.06;5028869;28;20243;-75
2023/10/31 03:33:13;;;;;;;0.77;0.77;;;;;;;8.18;100.00;94726.03;5031307;28;20208;-74
2023/10/31 03:35:40;;;;;;;0.20;0.20;;;;;;;8.30;100.00;94714.66;5032525;28;20212;-75
2023/10/31 03:38:07;;;;;;;0.52;0.52;;;;;;;8.23;100.00;94706.22;5033400;28;20203;-75
2023/10/31 03:40:34;;;;;;;0.40;0.40;;;;;;;8.28;100.00;94714.19;5033142;28;20262;-75
2023/10/31 03:43:01;;;;;;;0.30;0.30;;;;;;;8.19;100.00;94714.16;5033215;28;20208;-75
2023/10/31 03:45:27;;;;;;;2.83;1.65;;;;;;;8.33;100.00;94697.88;5032758;28;20208;-74
2023/10/31 03:47:56;;;;;;;3.88;2.03;;;;;;;8.23;100.00;94700.81;5032740;28;20235;-75
2023/10/31 03:50:23;;;;;;;4.38;1.80;;;;;;;8.16;100.00;94708.56;5033288;28;20196;-76
2023/10/31 03:52:50;;;;;;;3.35;1.75;;;;;;;7.95;100.00;94712.88;5032380;28;20595;-76
2023/10/31 03:55:16;;;;;;;3.13;1.65;;;;;;;7.79;100.00;94715.94;5033197;28;20728;-76
2023/10/31 03:57:43;;;;;;;0.30;0.30;;;;;;;7.75;100.00;94720.38;5032856;28;20208;-76
2023/10/31 04:00:11;;;;;;;0.20;0.20;;;;;;;7.62;100.00;94715.84;5032864;28;20247;-76
2023/10/31 04:02:38;;;;;;;0.30;0.30;;;;;;;7.58;100.00;94714.06;5028056;28;20619;-77
2023/10/31 04:05:07;;;;;;;0.20;0.20;;;;;;;7.62;100.00;94721.25;5030413;28;20211;-75
2023/10/31 04:07:34;;;;;;;0.40;0.40;;;;;;;7.62;100.00;94715.84;5030906;28;20327;-75
2023/10/31 04:10:01;;;;;;;0.20;0.20;;;;;;;7.61;100.00;94725.03;5045119;28;20236;-74
2023/10/31 04:12:29;;;;;;;1.08;0.75;;;;;;;7.59;100.00;94737.22;5032344;28;20205;-74
2023/10/31 04:14:56;;;;;;;0.20;0.20;;;;;;;7.61;100.00;94719.66;5025339;28;20227;-74
2023/10/31 04:17:23;;;;;;;2.47;1.80;;;;;;;7.57;100.00;94724.06;5032439;28;20204;-75
2023/10/31 04:19:50;;;;;;;2.63;0.43;;;;;;;7.69;100.00;94710.03;5032121;28;20725;-74
2023/10/31 04:22:18;;;;;;;2.15;1.67;;;;;;;7.72;100.00;94710.22;5032053;28;20207;-75
2023/10/31 04:24:45;;;;;;;2.42;1.85;;;;;;;7.69;100.00;94705.44;5031802;28;20244;-74
2023/10/31 04:27:12;;;;;;;0.25;0.25;;;;;;;7.61;100.00;94697.28;5031883;28;20239;-74
2023/10/31 04:29:39;;;;;;;0.40;0.40;;;;;;;7.55;100.00;94699.31;5021444;28;20600;-74
2023/10/31 04:32:07;;;;;;;0.20;0.20;;;;;;;7.53;100.00;94696.13;5032163;28;20197;-75
2023/10/31 04:34:34;;;;;;;0.20;0.20;;;;;;;7.53;100.00;94695.31;5032573;28;20219;-74
2023/10/31 04:37:01;;;;;;;0.47;0.47;;;;;;;7.39;100.00;94703.47;5032422;28;20205;-75
2023/10/31 04:39:29;;;;;;;0.20;0.20;;;;;;;7.38;100.00;94693.81;5031732;28;20208;-75
2023/10/31 04:41:56;;;;;;;1.15;1.05;;;;;;;7.43;100.00;94696.38;5031911;28;20246;-76
2023/10/31 04:44:23;;;;;;;0.40;0.40;;;;;;;7.28;100.00;94694.03;5031669;28;20287;-76
2023/10/31 04:46:50;;;;;;;0.20;0.20;;;;;;;7.34;100.00;94700.91;5031935;28;20231;-77
2023/10/31 04:49:16;;;;;;;7.82;1.95;;;;;;;7.41;100.00;94703.94;5032089;28;20204;-76
2023/10/31 04:51:44;;;;;;;0.60;0.60;;;;;;;7.42;100.00;94713.63;5031658;28;20290;-77
2023/10/31 04:54:11;;;;;;;11.70;3.17;;;;;;;7.36;100.00;94701.41;5025445;28;20297;-77
2023/10/31 04:56:40;;;;;;;2.35;1.80;;;;;;;7.41;100.00;94703.94;5029493;28;20204;-77
2023/10/31 04:59:06;;;;;;;2.05;1.75;;;;;;;7.51;100.00;94719.91;5032263;28;20653;-77
2023/10/31 05:01:33;;;;;;;0.77;0.77;;;;;;;7.48;100.00;94720.50;5031742;28;20357;-74
2023/10/31 05:04:00;;;;;;;0.20;0.20;;;;;;;7.42;100.00;94721.72;5032130;28;20204;-73
2023/10/31 05:06:27;;;;;;;0.30;0.30;;;;;;;7.22;100.00;94725.69;5028053;28;20208;-73
2023/10/31 05:08:54;;;;;;;0.82;0.82;;;;;;;7.22;100.00;94724.88;5041690;28;20293;-76
2023/10/31 05:11:21;;;;;;;0.50;0.50;;;;;;;7.38;100.00;94726.91;5038720;28;20579;-73
2023/10/31 05:13:49;;;;;;;0.25;0.25;;;;;;;7.46;100.00;94718.13;5022246;28;20295;-73
2023/10/31 05:16:16;;;;;;;0.82;0.82;;;;;;;7.32;100.00;94724.66;5031566;28;20216;-73
2023/10/31 05:18:43;;;;;;;0.50;0.50;;;;;;;7.41;100.00;94722.81;5031149;28;20212;-73
2023/10/31 05:21:10;;;;;;;2.50;2.30;;;;;;;7.58;100.00;94725.66;5031790;28;20209;-73
2023/10/31 05:23:37;;;;;;;4.32;2.42;;;;;;;8.04;100.00;94724.53;5038856;28;20211;-74
2023/10/31 05:26:06;;;;;;;3.60;2.20;;;;;;;8.69;100.00;94715.78;5031484;28;20304;-73
2023/10/31 05:28:33;;;;;;;3.35;1.90;;;;;;;8.76;100.00;94726.91;5031226;28;20227;-73
2023/10/31 05:31:01;;;;;;;0.20;0.20;;;;;;;8.65;100.00;94717.50;5031078;28;20700;-72
2023/10/31 05:33:28;;;;;;;3.60;1.73;;;;;;;9.06;100.00;94704.44;5029661;28;20577;-73
2023/10/31 05:35:55;;;;;;;0.35;0.35;;;;;;;9.25;100.00;94714.97;5031152;28;20212;-73
2023/10/31 05:38:21;;;;;;;0.25;0.25;;;;;;;9.74;100.00;94721.78;5030969;28;20200;-72
2023/10/31 05:40:49;;;;;;;0.75;0.75;;;;;;;10.51;100.00;94722.78;5038174;28;20618;-73
2023/10/31 05:43:15;;;;;;;0.20;0.20;;;;;;;11.27;100.00;94719.97;5030753;28;20246;-73
2023/10/31 05:45:42;;;;;;;0.20;0.20;;;;;;;12.17;95.98;94709.34;5030809;28;20208;-72
2023/10/31 05:48:14;;;;;;;0.30;0.30;;;;;;;13.42;91.14;94693.22;5030741;28;20228;-73
2023/10/31 05:50:42;;;;;;;2.47;0.52;;;;;;;13.77;87.16;94698.13;5030938;28;20600;-73
2023/10/31 05:53:09;;;;;;;0.77;0.77;;;;;;;14.46;83.39;94697.72;5030904;28;20200;-71
2023/10/31 05:55:41;;;;;;;0.20;0.20;;;;;;;14.67;81.69;94699.38;5024828;28;20212;-74
2023/10/31 05:58:08;;;;;;;0.20;0.20;;;;;;;15.23;81.23;94708.16;5029063;28;20242;-74
2023/10/31 06:00:36;;;;;;;0.20;0.20;;;;;;;14.64;80.30;94719.97;5030013;28;20283;-76
2023/10/31 06:03:04;;;;;;;1.33;1.23;;;;;;;13.79;83.43;94733.97;5029791;28;20205;-75
2023/10/31 06:05:33;;;;;;;0.50;0.50;;;;;;;13.97;82.84;94740.69;5011465;28;20200;-73
2023/10/31 06:07:59;;;;;;;1.10;1.02;;;;;;;14.09;83.36;94737.94;5024019;28;20238;-73
2023/10/31 06:10:27;;;;;;;1.20;1.13;;;;;;;15.23;80.07;94740.91;5019504;28;20220;-73
2023/10/31 06:12:57;;;;;;;0.88;0.88;;;;;;;15.43;77.80;94739.81;5023130;28;20208;-73
2023/10/31 06:15:23;;;;;;;3.33;1.58;;;;;;;14.61;80.10;94737.03;5026453;28;20204;-74
2023/10/31 06:17:52;;;;;;;0.88;0.88;;;;;;;14.90;80.11;94738.53;5027079;28;20209;-74
2023/10/31 06:20:19;;;;;;;1.75;0.95;;;;;;;14.36;81.41;94740.97;5020630;28;20243;-73
2023/10/31 06:22:47;;;;;;;0.43;0.43;;;;;;;13.12;85.61;94729.94;5023091;28;20216;-72
2023/10/31 06:25:14;;;;;;;0.38;0.38;;;;;;;12.92;87.20;94733.59;5021434;28;20568;-73
2023/10/31 06:27:41;;;;;;;0.98;0.98;;;;;;;12.09;90.43;94735.47;5029756;28;20236;-74
2023/10/31 06:30:09;;;;;;;0.73;0.73;;;;;;;12.39;91.55;94751.63;5019717;28;20236;-73
2023/10/31 06:32:35;;;;;;;0.30;0.30;;;;;;;12.69;89.75;94747.63;5026034;28;20223;-73
2023/10/31 06:35:02;;;;;;;0.45;0.45;;;;;;;12.58;90.09;94749.16;5021190;28;20660;-74
2023/10/31 06:37:29;;;;;;;0.43;0.35;;;;;;;12.80;89.39;94747.97;5027042;28;20204;-73
2023/10/31 06:39:57;;;;;;;1.90;1.27;;;;;;;12.90;89.88;94752.16;5026834;28;20208;-74
2023/10/31 06:42:24;;;;;;;2.17;1.52;;;;;;;12.87;90.92;94747.38;5028359;28;20208;-73
2023/10/31 06:44:51;;;;;;;0.30;0.30;;;;;;;12.75;90.69;94746.25;5026578;28;20209;-79
2023/10/31 06:47:18;;;;;;;0.38;0.38;;;;;;;12.70;91.24;94742.97;5036455;28;20226;-78
2023/10/31 06:49:44;;;;;;;0.30;0.30;;;;;;;12.76;91.67;94736.97;5037133;28;20536;-77
2023/10/31 06:52:11;;;;;;;0.50;0.50;;;;;;;12.84;91.75;94742.66;5036047;28;20204;-77
2023/10/31 06:54:40;;;;;;;0.57;0.57;;;;;;;12.94;91.18;94734.03;5039181;28;20212;-77
2023/10/31 06:57:09;;;;;;;2.40;0.70;;;;;;;12.63;91.12;94735.38;5035660;28;20200;-78
2023/10/31 06:59:36;;;;;;;1.33;1.13;;;;;;;12.76;92.36;94736.97;5033493;28;20207;-79
2023/10/31 07:02:03;;;;;;;0.65;0.65;;;;;;;12.68;91.32;94737.88;5030343;28;20663;-78
2023/10/31 07:04:30;;;;;;;0.85;0.85;;;;;;;12.82;92.59;94746.50;5032261;28;20192;-79
2023/10/31 07:06:57;;;;;;;1.90;1.65;;;;;;;13.06;90.40;94726.69;5042314;28;21240;-77
2023/10/31 07:09:24;;;;;;;0.82;0.82;;;;;;;12.60;91.27;94727.09;5040764;28;20306;-78
2023/10/31 07:11:52;;;;;;;1.23;1.17;;;;;;;12.60;92.75;94737.97;5048918;28;20261;-79
2023/10/31 07:14:20;;;;;;;0.55;0.55;;;;;;;12.74;91.65;94733.78;5037878;28;20204;-77
2023/10/31 07:16:48;;;;;;;0.82;0.82;;;;;;;12.60;91.47;94716.22;5035983;28;20201;-77
2023/10/31 07:19:17;;;;;;;0.63;0.63;;;;;;;12.63;91.83;94724.50;5043819;28;20215;-79
2023/10/31 07:21:44;;;;;;;2.53;1.55;;;;;;;12.89;90.96;94731.53;5041866;28;20231;-76
2023/10/31 07:24:11;;;;;;;2.38;1.30;;;;;;;12.92;90.90;94726.22;5041319;28;20267;-78
2023/10/31 07:26:40;;;;;;;1.25;1.13;;;;;;;13.02;90.71;94722.25;5039315;28;20212;-77
2023/10/31 07:29:07;;;;;;;2.28;0.75;;;;;;;13.41;88.82;94721.56;5042882;28;20409;-77
2023/10/31 07:31:38;;;;;;;1.75;1.23;;;;;;;13.49;88.11;94709.78;5039576;28;20549;-79
2023/10/31 07:34:05;;;;;;;2.92;1.35;;;;;;;13.65;88.81;94711.78;5038675;28;20246;-79
2023/10/31 07:36:34;;;;;;;1.17;1.08;;;;;;;13.83;87.54;94718.50;5042909;28;20235;-80
2023/10/31 07:39:01;;;;;;;0.98;0.98;;;;;;;14.09;86.43;94715.34;5034203;28;20567;-79
2023/10/31 07:41:28;;;;;;;0.20;0.20;;;;;;;14.24;85.39;94717.31;5039240;28;20207;-78
2023/10/31 07:43:55;;;;;;;6.43;3.20;;;;;;;14.02;85.09;94705.06;5033370;28;20626;-78
2023/10/31 07:46:23;;;;;;;1.02;1.00;;;;;;;14.03;85.89;94703.91;5033351;28;20203;-78
2023/10/31 07:48:51;;;;;;;1.02;1.02;;;;;;;14.33;85.63;94692.66;5038187;28;20583;-78
2023/10/31 07:51:18;;;;;;;0.88;0.88;;;;;;;14.61;83.70;94693.41;5051266;28;20266;-78
2023/10/31 07:53:46;;;;;;;0.60;0.60;;;;;;;14.54;83.74;94691.28;5040669;28;20735;-80
2023/10/31 07:56:17;;;;;;;4.95;2.65;;;;;;;14.74;83.80;94685.94;5034774;28;20322;-79
2023/10/31 07:58:44;;;;;;;1.15;1.05;;;;;;;14.92;82.17;94674.28;5035627;28;20535;-80
2023/10/31 08:01:11;;;;;;;1.80;1.13;;;;;;;15.08;80.98;94677.00;5031431;28;20531;-79
2023/10/31 08:03:38;;;;;;;0.30;0.30;;;;;;;14.91;81.71;94669.19;5030932;28;20200;-78
2023/10/31 08:06:07;;;;;;;0.63;0.63;;;;;;;14.94;81.22;94669.28;5031624;28;20254;-76
2023/10/31 08:08:34;;;;;;;0.50;0.50;;;;;;;14.96;81.43;94665.41;5031102;28;20311;-79
2023/10/31 08:11:01;;;;;;;1.08;1.05;;;;;;;15.13;82.10;94670.50;5031373;28;20236;-79
2023/10/31 08:13:28;;;;;;;3.28;2.05;;;;;;;15.29;80.32;94666.59;5029773;28;20216;-80
2023/10/31 08:15:55;;;;;;;3.88;2.75;;;;;;;15.33;80.86;94674.84;5025838;28;20219;-82
2023/10/31 08:18:24;;;;;;;2.55;1.90;;;;;;;15.49;79.84;94661.94;5025266;28;20228;-78
2023/10/31 08:20:50;;;;;;;1.50;1.05;;;;;;;15.62;79.65;94662.63;5026905;28;20204;-79
2023/10/31 08:23:19;;;;;;;3.53;0.82;;;;;;;15.70;79.61;94658.91;5031419;28;20220;-80
2023/10/31 08:25:46;;;;;;;1.10;1.10;;;;;;;15.77;78.91;94650.06;5023265;28;20236;-78
2023/10/31 08:28:13;;;;;;;0.65;0.65;;;;;;;15.91;78.05;94647.59;5031304;28;20243;-78
2023/10/31 08:30:40;;;;;;;0.70;0.70;;;;;;;16.11;77.36;94632.00;5031029;28;20248;-79
2023/10/31 08:33:07;;;;;;;0.95;0.85;;;;;;;16.27;76.93;94627.97;5031839;28;20588;-79
2023/10/31 08:35:34;;;;;;;0.60;0.60;;;;;;;16.39;76.03;94631.72;5022985;28;20204;-78
2023/10/31 08:38:01;;;;;;;0.70;0.70;;;;;;;16.55;77.05;94624.16;5024940;28;20601;-78
2023/10/31 08:40:29;;;;;;;0.68;0.68;;;;;;;16.69;75.89;94608.00;5024721;28;20669;-79
2023/10/31 08:42:57;;;;;;;0.35;0.35;;;;;;;16.78;74.79;94605.81;5021680;28;20204;-79
2023/10/31 08:45:23;;;;;;;5.93;1.58;;;;;;;16.85;75.50;94614.13;5023890;28;20204;-79
2023/10/31 08:47:51;;;;;;;0.25;0.25;;;;;;;17.03;73.89;94607.00;5025057;28;20205;-79
2023/10/31 08:50:17;;;;;;;1.02;1.02;;;;;;;17.17;74.25;94598.19;5023498;28;20530;-76
2023/10/31 08:52:44;;;;;;;0.70;0.70;;;;;;;16.88;73.58;94602.47;5024427;28;20568;-76
2023/10/31 08:55:11;;;;;;;0.50;0.50;;;;;;;16.99;73.05;94584.25;5022728;28;20200;-76
2023/10/31 08:57:40;;;;;;;4.55;2.38;;;;;;;16.95;73.01;94583.41;5022930;28;20208;-77
2023/10/31 09:00:08;;;;;;;2.97;1.92;;;;;;;16.83;70.13;94580.88;5026186;28;20204;-77
2023/10/31 09:02:34;;;;;;;1.55;1.05;;;;;;;16.97;66.90;94581.09;5022698;28;20581;-76
2023/10/31 09:05:01;;;;;;;2.05;1.60;;;;;;;16.92;67.05;94584.16;5030182;28;20208;-77
2023/10/31 09:07:28;;;;;;;1.65;1.55;;;;;;;17.25;66.09;94571.69;5027303;28;20216;-77
2023/10/31 09:09:55;;;;;;;3.50;1.35;;;;;;;17.51;65.02;94566.16;5024554;28;20255;-77
2023/10/31 09:12:22;;;;;;;0.60;0.60;;;;;;;17.55;64.90;94553.28;5020529;28;20263;-78
2023/10/31 09:14:50;;;;;;;5.00;2.30;;;;;;;17.59;64.38;94551.41;5023279;28;20197;-78
2023/10/31 09:17:17;;;;;;;3.53;2.42;;;;;;;17.48;63.80;94539.53;5021739;28;20200;-78
2023/10/31 09:19:44;;;;;;;3.65;2.42;;;;;;;17.66;63.30;94545.22;5021659;28;20197;-77
2023/10/31 09:22:10;;;;;;;0.20;0.20;;;;;;;17.98;62.32;94540.88;5022169;28;20216;-78
2023/10/31 09:24:37;;;;;;;0.57;0.57;;;;;;;18.00;61.76;94535.03;5024322;28;20294;-77
2023/10/31 09:27:04;;;;;;;3.30;2.00;;;;;;;17.76;62.06;94533.63;5022774;28;20672;-78
2023/10/31 09:29:31;;;;;;;3.17;2.20;;;;;;;17.94;62.34;94528.28;5025843;28;20298;-77
2023/10/31 09:31:59;;;;;;;2.13;1.60;;;;;;;18.12;60.86;94521.03;5024352;28;20211;-76
2023/10/31 09:34:26;;;;;;;6.15;2.10;;;;;;;17.92;60.75;94512.22;5022739;28;20566;-76
2023/10/31 09:36:53;;;;;;;5.03;2.42;;;;;;;18.28;61.23;94507.88;5022151;28;20228;-77
2023/10/31 09:39:20;;;;;;;4.60;1.50;;;;;;;18.42;60.71;94510.72;5024378;28;20196;-77
2023/10/31 09:41:48;;;;;;;1.48;1.30;;;;;;;18.44;59.35;94507.59;5023767;28;20200;-77
2023/10/31 09:44:15;;;;;;;0.30;0.30;;;;;;;18.68;58.45;94498.00;5025129;28;20193;-77
2023/10/31 09:46:42;;;;;;;0.57;0.45;;;;;;;18.71;58.95;94489.00;5021357;28;20624;-77
2023/10/31 09:49:11;;;;;;;2.28;1.38;;;;;;;18.73;58.75;94472.94;5022482;28;20228;-77
2023/10/31 09:51:38;;;;;;;3.22;1.48;;;;;;;18.68;58.12;94478.78;5022370;28;20212;-76
2023/10/31 09:54:07;;;;;;;5.03;1.70;;;;;;;18.68;58.07;94467.81;5022305;28;20209;-77
2023/10/31 09:56:35;;;;;;;2.10;1.27;;;;;;;18.79;57.01;94465.91;5022020;28;20208;-77
2023/10/31 09:59:02;;;;;;;1.10;1.00;;;;;;;19.04;56.81;94464.09;5024807;28;20215;-76
2023/10/31 10:01:29;;;;;;;1.27;1.08;;;;;;;19.29;56.38;94463.38;5026346;28;20303;-76
2023/10/31 10:03:57;;;;;;;1.88;1.15;;;;;;;19.06;56.57;94453.50;5025921;28;20557;-76
2023/10/31 10:06:26;;;;;;;1.15;0.95;;;;;;;19.10;56.29;94453.53;5030577;28;20558;-77
2023/10/31 10:08:52;;;;;;;1.55;1.20;;;;;;;19.28;56.97;94440.63;5029900;28;20228;-76
2023/10/31 10:11:20;;;;;;;1.17;1.00;;;;;;;19.53;55.55;94440.75;5030346;28;20587;-77
2023/10/31 10:13:47;;;;;;;4.50;1.40;;;;;;;19.65;55.57;94421.16;5029893;28;20212;-76
2023/10/31 10:16:13;;;;;;;1.88;1.13;;;;;;;19.73;54.38;94424.69;5030101;28;20575;-77
2023/10/31 10:18:40;;;;;;;2.45;1.23;;;;;;;19.83;55.59;94424.69;5029788;28;20568;-76
2023/10/31 10:21:09;;;;;;;2.88;0.85;;;;;;;19.73;54.33;94414.47;5027659;28;20211;-75
2023/10/31 10:23:38;;;;;;;2.15;1.25;;;;;;;19.71;53.44;94411.31;5029223;28;20562;-75
2023/10/31 10:26:05;;;;;;;1.05;0.95;;;;;;;19.55;53.12;94410.91;5030023;28;20215;-75
2023/10/31 10:28:33;;;;;;;1.77;1.33;;;;;;;19.38;53.54;94408.91;5029434;28;20208;-76
2023/10/31 10:30:59;;;;;;;3.03;1.30;;;;;;;19.38;53.63;94406.16;5028944;28;20251;-76
2023/10/31 10:33:26;;;;;;;1.48;1.02;;;;;;;19.61;52.08;94405.81;5037074;28;20284;-76
2023/10/31 10:35:56;;;;;;;1.52;1.05;;;;;;;19.67;51.42;94407.81;5028457;28;20299;-75
2023/10/31 10:38:23;;;;;;;2.00;1.10;;;;;;;19.72;50.66;94410.16;5029744;28;20235;-76
2023/10/31 10:40:52;;;;;;;2.50;0.80;;;;;;;19.94;49.79;94399.19;5028390;28;20204;-77
2023/10/31 10:43:23;;;;;;;0.90;0.90;;;;;;;20.16;50.56;94385.03;5029430;28;20208;-75
2023/10/31 10:45:56;;;;;;;1.02;0.93;;;;;;;20.12;51.35;94378.72;5029452;28;20294;-76
2023/10/31 10:48:24;;;;;;;1.10;0.90;;;;;;;20.36;50.70;94374.44;5027598;28;20307;-76
2023/10/31 10:50:58;;;;;;;1.58;1.00;;;;;;;20.67;49.90;94358.22;5024838;28;20568;-77
2023/10/31 10:53:26;;;;;;;2.17;1.23;;;;;;;20.72;49.98;94366.84;5027594;28;20303;-76
2023/10/31 10:56:01;;;;;;;2.45;1.20;;;;;;;20.54;47.32;94361.41;5028845;28;20325;-75
2023/10/31 10:58:35;;;;;;;1.50;0.93;;;;;;;20.32;47.54;94359.84;5029274;28;20273;-76
2023/10/31 11:01:03;;;;;;;1.70;1.00;;;;;;;20.34;48.26;94341.00;5029200;28;20286;-76
2023/10/31 11:03:31;;;;;;;2.25;1.10;;;;;;;20.48;47.28;94335.47;5020846;28;20303;-76
2023/10/31 11:05:59;;;;;;;1.20;0.90;;;;;;;20.69;45.47;94336.56;5029065;28;20219;-76
2023/10/31 11:08:26;;;;;;;2.25;1.38;;;;;;;20.96;43.71;94334.88;5031278;28;20540;-76
2023/10/31 11:10:57;;;;;;;1.05;0.80;;;;;;;20.81;43.20;94336.91;5028063;28;20230;-77
2023/10/31 11:13:25;;;;;;;1.45;0.80;;;;;;;20.84;42.05;94333.38;5041486;28;20567;-77
2023/10/31 11:15:58;;;;;;;0.88;0.82;;;;;;;21.23;41.84;94330.44;5028975;28;20297;-77
2023/10/31 11:18:26;;;;;;;2.10;0.98;;;;;;;21.38;42.10;94327.59;5028978;28;20204;-78
2023/10/31 11:20:53;;;;;;;1.05;0.95;;;;;;;21.34;41.30;94321.31;5026504;28;20303;-77
2023/10/31 11:23:20;;;;;;;0.95;0.88;;;;;;;20.94;43.42;94312.47;5025798;28;20208;-78
2023/10/31 11:25:53;;;;;;;2.97;1.27;;;;;;;21.36;42.34;94316.19;5019689;28;20235;-79
2023/10/31 11:28:21;;;;;;;1.00;0.80;;;;;;;21.21;40.67;94305.25;5028982;28;20209;-78
2023/10/31 11:30:50;;;;;;;1.35;1.00;;;;;;;21.35;40.81;94298.09;5025396;28;20325;-75
2023/10/31 11:33:20;;;;;;;0.88;0.82;;;;;;;21.34;40.16;94297.31;5023472;28;20196;-77
2023/10/31 11:35:51;;;;;;;0.82;0.70;;;;;;;21.30;40.66;94290.25;5022990;28;20211;-78